Terminal Aerodrome Forecast
Issued by NWS Sioux Falls, SD

Home | Current Version | Previous Version | Text Only | Print | Product List | Glossary On
Versions: 1 2 3 4 5 6 7 8 9 10 11 12 13 14 15 16 17
000
FTUS43 KFSD 200315 AAA
TAFFSD
TAF AMD
KFSD 200315Z 2003/2024 08014G20KT P6SM OVC035
     FM200600 05011KT P6SM -SHRA OVC025
     FM201200 03010KT 6SM -SHRA OVC010
     FM201800 04011KT 3SM -SHRA BR OVC008=

USA.gov is the U.S. government's official web portal to all federal, state and local government web resources and services.